ADDS METAR Data INFO
IDs: Format: Raw Decoded Include TAF

Data at: 1020 UTC 12 Dec 2017

PAPB 120953Z AUTO 33018G38KT 300V360 9SM BKN020 OVC031 00/M04 A2935 RMK AO2 PK WND 33038/0910 UPB23E32SNB0858E0859B45E50 SLP927 P0000 T00001039 TSNO
PAPB 120853Z AUTO 34015G36KT 7SM OVC019 00/M03 A2936 RMK AO2 PK WND 33039/0819 SNE02B21E33 SLP930 P0000 60001 T00001028 400061006 50005 TSNO
PAPB 120753Z AUTO 35016G42KT 5SM -SN BR BKN016 OVC032 M01/M02 A2936 RMK AO2 PK WND 01042/0751 SNE20B43 SLP932 P0001 T10061022 TSNO
PAPB 120727Z AUTO 35017G35KT 320V020 8SM BKN015 BKN022 OVC036 M01/M02 A2936 RMK AO2 PK WND 36036/0703 SNE20 P0000 T10061022 TSNO
PAPB 120719Z AUTO 01018G31KT 5SM -SN BR BKN013 BKN023 OVC034 M01/M02 A2936 RMK AO2 PK WND 36036/0703 P0000 T10061022 TSNO
PAPB 120710Z AUTO 01018G36KT 2SM -SN BR BKN013 OVC020 M01/M02 A2936 RMK AO2 PK WND 36036/0703 P0000 T10061022 TSNO
PAPB 120653Z AUTO 33020G42KT 1 1/2SM -SN BR BKN014 OVC018 M01/M02 A2935 RMK AO2 PK WND 02042/0649 SLP926 P0000 T10061022 TSNO
PAPB 120628Z AUTO 35017G36KT 310V020 1 3/4SM -SN BR BKN014 OVC022 M01/M02 A2936 RMK AO2 PK WND 35039/0607 P0000 T10061022 TSNO
PAPB 120616Z AUTO 36021G39KT 2SM -SN BR BKN014 OVC022 M01/M02 A2935 RMK AO2 PK WND 35039/0607 P0000 T10061022 TSNO
PAPB 120553Z AUTO 36026G46KT 2 1/2SM -SN BR OVC018 00/M02 A2934 RMK AO2 PK WND 36046/0512 SLP925 P0000 60000 T00001022 10006 21006 52013 TSNO
PAPB 120515Z AUTO 36022G46KT 4SM -SN BR BKN015 OVC023 00/M02 A2935 RMK AO2 PK WND 36046/0512 P0000 T00001022 TSNO
PAPB 120504Z AUTO 36026G39KT 4SM -SN BR BKN013 OVC021 00/M02 A2934 RMK AO2 PK WND 36039/0504 P0000 T00001017 TSNO
PAPB 120453Z AUTO 35020G48KT 2SM -SN BR BKN012 OVC019 M01/M02 A2934 RMK AO2 PK WND 01051/0405 VIS 1 1/2V3 SLP924 P0000 T10061017 TSNO
PAPB 120435Z AUTO 02024G40KT 2SM -SN BR BKN011 OVC018 M01/M01 A2933 RMK AO2 PK WND 01051/0405 P0000 T10061011 TSNO
PAPB 120353Z AUTO 36030G38KT 1 1/4SM -SN BR OVC012 M01/M01 A2931 RMK AO2 PK WND 02048/0306 SLP913 P0000 T10061011 TSNO
PAPB 120349Z AUTO 01022G38KT 1SM -SN BR OVC012 00/M01 A2932 RMK AO2 PK WND 02048/0306 P0000 TSNO
PAPB 120342Z AUTO 36019G39KT 1 1/4SM -SN BR OVC014 M01/M02 A2932 RMK AO2 PK WND 02048/0306 P0000 T10061017 TSNO
PAPB 120332Z AUTO 01030G44KT 1SM -SN BR FEW010 OVC016 00/M02 A2930 RMK AO2 PK WND 02048/0306 P0000 T00001017 TSNO
PAPB 120323Z AUTO 01028G43KT 1 1/4SM -SN BR BKN016 OVC021 00/M02 A2931 RMK AO2 PK WND 02048/0306 P0000 T00001017 TSNO
PAPB 120305Z AUTO 35029G45KT 2 1/2SM -SN BR OVC016 00/M02 A2930 RMK AO2 PK WND 36045/0303 P0000 T00001022 TSNO
PAPB 120253Z AUTO 01024G39KT 5SM -SN BR BKN013 OVC020 00/M02 A2931 RMK AO2 PK WND 35045/0159 SLP912 P0000 60000 T00001017 52013 TSNO
PAPB 120237Z AUTO 36023G43KT 3SM -SN BR OVC013 01/M01 A2930 RMK AO2 PK WND 35045/0159 P0000 T00061011 TSNO
PAPB 120228Z AUTO 36027G43KT 1 1/2SM -SN BR OVC013 00/M01 A2929 RMK AO2 PK WND 35045/0159 P0000 T00001011 TSNO
PAPB 120217Z AUTO 36031G41KT 1SM -SN BR FEW008 OVC012 00/M01 A2929 RMK AO2 PK WND 35045/0159 P0000 T00001011 TSNO
PAPB 120205Z AUTO 01022G45KT 1 1/4SM -SN BR OVC012 00/M01 A2930 RMK AO2 PK WND 35045/0159 P0000 T00001011 TSNO
PAPB 120153Z AUTO 01020G39KT 3/4SM -SN BR OVC012 00/M01 A2930 RMK AO2 PK WND 01043/0104 SLP909 P0000 T00001011 TSNO
PAPB 120146Z AUTO 01027G39KT 1 3/4SM -SN BR BKN012 OVC020 00/M01 A2929 RMK AO2 PK WND 01043/0104 P0000 T00001011 TSNO
PAPB 120136Z AUTO 01024G39KT 3SM -SN BR BKN012 OVC022 00/M01 A2929 RMK AO2 PK WND 01043/0104 P0000 T00001011 TSNO
PAPB 120118Z AUTO 36024G38KT 1 1/4SM -SN BR BKN011 OVC021 00/M02 A2928 RMK AO2 PK WND 01043/0104 P0000 T00001017 TSNO
PAPB 120108Z AUTO 02025G43KT 1SM -SN BR SCT011 BKN014 OVC019 00/M01 A2927 RMK AO2 PK WND 01043/0104 P0000 T00001011 TSNO
PAPB 120102Z AUTO 01020G38KT 340V040 1 1/2SM -SN BR SCT009 OVC017 00/M01 A2929 RMK AO2 PK WND 36038/0054 P0000 T00001011 TSNO
PAPB 120100Z AUTO 36025G38KT 2SM -SN BR FEW009 BKN014 OVC019 00/M01 A2928 RMK AO2 PK WND 36038/0054 P0000 T00001011 TSNO
PAPB 120053Z AUTO 01025G36KT 1 3/4SM -SN BR FEW011 BKN014 OVC019 00/M01 A2928 RMK AO2 PK WND 36043/0006 SLP902 P0000 T00001011 TSNO
PAPB 120051Z AUTO 01026G37KT 1 1/4SM -SN BR BKN011 OVC017 00/M01 A2927 RMK AO2 PK WND 36043/0006 P0000 TSNO
PAPB 120049Z AUTO 01028G37KT 1SM -SN BR SCT011 OVC016 00/M01 A2927 RMK AO2 PK WND 36043/0006 P0000 TSNO
PAPB 120039Z AUTO 01028G41KT 3/4SM -SN BR SCT009 OVC013 00/M01 A2927 RMK AO2 PK WND 36043/0006 P0000 T00001011 TSNO
PAPB 120032Z AUTO 01023G37KT 1SM -SN BR BKN011 OVC017 00/M01 A2927 RMK AO2 PK WND 36043/0006 P0000 T00001011 TSNO
PAPB 120025Z AUTO 01027G39KT 2SM -SN BR BKN013 OVC019 00/M01 A2926 RMK AO2 PK WND 36043/0006 P0000 T00001011 TSNO
PAPB 120003Z AUTO 36026G37KT 1 1/4SM -SN BR OVC013 00/M01 A2926 RMK AO2 PK WND 02037/2356 P0000 T00001011 TSNO
PAPB 112353Z AUTO 02023G43KT 3/4SM -SN BR BKN010 OVC016 00/M01 A2927 RMK AO2 PK WND 02043/2350 SLP899 P0000 60000 T00001011 10006 21006 53001 TSNO
PAPB 112344Z AUTO 02030G40KT 3/4SM -SN BR FEW010 BKN016 OVC021 00/M02 A2926 RMK AO2 PK WND 01040/2343 P0000 T00001017 TSNO
PAPB 112341Z AUTO 01026G36KT 1 3/4SM -SN BR BKN016 OVC023 00/M02 A2926 RMK AO2 PK WND 02039/2300 P0000 T00001017 TSNO
PAPB 112337Z AUTO 36025G37KT 3SM -SN BR BKN016 BKN025 OVC034 01/M02 A2926 RMK AO2 PK WND 02039/2300 P0000 T00061017 TSNO
PAPB 112301Z AUTO 02032G39KT 2SM -SN BR SCT018 BKN025 OVC030 01/M02 A2925 RMK AO2 PK WND 02039/2300 P0000 T00061017 TSNO
PAPB 112253Z AUTO 01026G44KT 3SM -SN SCT016 BKN032 OVC041 01/M02 A2926 RMK AO2 PK WND 01044/2248 SLP896 P0000 T00061022 TSNO
PAPB 112251Z AUTO 01025G44KT 4SM -SN FEW013 BKN030 OVC050 01/M02 A2926 RMK AO2 PK WND 01044/2248 P0000 TSNO
PAPB 112228Z AUTO 01025G32KT 4SM -SN BR FEW013 BKN018 OVC036 01/M01 A2926 RMK AO2 PK WND 01041/2209 P0000 T00061011 TSNO
PAPB 112220Z AUTO 01021G30KT 2SM -SN BR SCT013 BKN018 OVC032 00/M01 A2926 RMK AO2 PK WND 01041/2209 P0000 T00001011 TSNO
PAPB 112217Z AUTO 01019G41KT 1SM -SN BR SCT014 OVC026 00/M02 A2927 RMK AO2 PK WND 01041/2209 P0000 T00001017 TSNO
PAPB 112209Z AUTO 01025G41KT 1 1/2SM -SN BR SCT014 BKN024 OVC042 00/M02 A2927 RMK AO2 PK WND 01041/2209 P0000 T00001017 TSNO
PAPB 112202Z AUTO 36024G38KT 5SM -SN BR BKN014 BKN036 OVC065 00/M02 A2926 RMK AO2 PK WND 36038/2159 P0000 T00001017 TSNO
PAPB 112153Z AUTO 01025G37KT 4SM -SN BR SCT014 BKN030 OVC070 00/M02 A2927 RMK AO2 PK WND 02037/2115 SLP898 P0000 T00001017 TSNO
PAPB 112144Z AUTO 01024G33KT 3SM -SN BR SCT014 BKN019 OVC050 00/M02 A2926 RMK AO2 PK WND 02037/2115 P0000 T00001017 TSNO
PAPB 112134Z AUTO 01018G31KT 2 1/2SM -SN BR SCT015 BKN021 OVC049 00/M02 A2927 RMK AO2 PK WND 02037/2115 P0000 T00001017 TSNO
PAPB 112118Z AUTO 36027G37KT 2SM -SN BR FEW012 BKN030 OVC047 00/M02 A2925 RMK AO2 PK WND 02037/2115 P0000 T00001022 TSNO
PAPB 112100Z AUTO 36024G40KT 3SM -SN BR FEW009 BKN019 OVC049 00/M02 A2925 RMK AO2 PK WND 01036/2058 P0000 T00001017 TSNO
PAPB 112057Z AUTO 01023G40KT 2SM -SN BR BKN014 BKN019 OVC049 00/M02 A2925 RMK AO2 PK WND 02034/2057 VIS 1V5 P0000 T00001017 TSNO
PAPB 112053Z AUTO 36024G40KT 1 1/4SM -SN BR FEW009 OVC016 00/M01 A2925 RMK AO2 PK WND 35040/2052 SLP892 P0000 60000 T00001011 51016 TSNO
PAPB 112045Z AUTO 36019G39KT 1SM -SN BR FEW009 OVC013 00/M01 A2925 RMK AO2 PK WND 04039/2001 P0000 T00001011 TSNO
PAPB 112035Z AUTO 36026G36KT 3/4SM -SN BR FEW009 OVC013 00/M01 A2924 RMK AO2 PK WND 04039/2001 P0000 T00001011 TSNO
PAPB 112025Z AUTO 02020G35KT 1/2SM -SN FZFG FEW008 OVC015 M01/M02 A2925 RMK AO2 PK WND 04039/2001 P0000 T10061017 TSNO
PAPB 112018Z AUTO 01019G33KT 1SM -SN BR FEW008 BKN013 OVC018 00/M02 A2925 RMK AO2 PK WND 04039/2001 P0000 T00001017 TSNO
PAPB 112010Z AUTO 01022G39KT 2SM -SN BR BKN014 BKN019 OVC025 00/M02 A2924 RMK AO2 PK WND 04039/2001 P0000 T00001017 TSNO
PAPB 112001Z AUTO 03026G39KT 1 3/4SM -SN BR SCT016 OVC022 00/M02 A2924 RMK AO2 PK WND 04039/2001 P0000 T00001022 TSNO
PAPB 111953Z AUTO 36022G42KT 4SM -SN BR SCT016 BKN022 OVC043 00/M02 A2924 RMK AO2 PK WND 36042/1951 SNB1854E08B41 SLP889 P0000 T00001022 TSNO
PAPB 111950Z AUTO 35017G33KT 6SM -SN BR SCT016 BKN022 OVC047 00/M02 A2923 RMK AO2 PK WND 35037/1939 SNB1854E08B41 P0000 TSNO
PAPB 111929Z AUTO 35023G36KT 10SM SCT020 SCT030 OVC049 00/M03 A2922 RMK AO2 PK WND 36036/1923 SNB1854E08 P0000 T00001028 TSNO
PAPB 111853Z AUTO 36024G41KT 330V030 5SM HZ BKN021 BKN028 OVC043 01/M03 A2920 RMK AO2 PK WND 02041/1853 SNB42E52 SLP876 P0000 T00061028 TSNO
PAPB 111803Z AUTO 36019G37KT 10SM BKN018 BKN026 OVC043 01/M02 A2920 RMK AO2 PK WND 35037/1757 T00061022 TSNO
PAPB 111753Z AUTO 36021G34KT 9SM SCT020 BKN033 OVC046 00/M03 A2920 RMK AO2 PK WND 34038/1713 SNB12E44 SLP875 P0000 60000 T00001028 10006 21006 51019 TSNO
PAPB 111716Z AUTO 36021G38KT 6SM -SN BKN021 BKN030 OVC040 01/M03 A2918 RMK AO2 PK WND 34038/1713 SNB12 P0000 T00061028 TSNO
PAPB 111653Z AUTO 01021G36KT 9SM SCT021 BKN037 OVC050 01/M03 A2918 RMK AO2 PK WND 36041/1638 SNE00B18E46 SLP869 P0000 T00061028 TSNO
PAPB 111631Z AUTO 01024G34KT 9SM FEW020 BKN035 OVC044 01/M02 A2916 RMK AO2 PK WND 04039/1619 SNE00B18E31 P0000 T00061022 TSNO
PAPB 111624Z AUTO 02017G39KT 3SM -SN BR FEW013 BKN028 OVC055 00/M02 A2917 RMK AO2 PK WND 04039/1619 SNE00B18 P0000 T00001022 TSNO
PAPB 111613Z AUTO 01023G35KT 8SM SCT015 BKN040 OVC055 00/M02 A2916 RMK AO2 PK WND 03035/1607 SNE00 P0000 T00001022 TSNO
PAPB 111553Z AUTO 35019G28KT 320V030 5SM -SN SCT015 BKN020 OVC034 01/M02 A2916 RMK AO2 PK WND 03040/1517 SNB32 SLP863 P0000 T00061022 TSNO
PAPB 111534Z AUTO 36018G33KT 7SM -SN SCT019 BKN026 OVC040 01/M03 A2916 RMK AO2 PK WND 03040/1517 SNB32 P0000 T00061028 TSNO
PAPB 111453Z AUTO 02026G35KT 10SM FEW016 SCT022 OVC050 00/M03 A2914 RMK AO2 PK WND 03038/1425 SNE45 SLP855 P0000 60000 T00001028 58001 TSNO
PAPB 111446Z AUTO 02024G32KT 9SM SCT016 SCT020 OVC042 01/M02 A2915 RMK AO2 PK WND 03038/1425 SNE45 P0000 T00061022 TSNO
PAPB 111438Z AUTO 01025G34KT 6SM -SN BR SCT015 BKN022 OVC034 00/M02 A2914 RMK AO2 PK WND 03038/1425 P0000 T00001017 TSNO
PAPB 111429Z AUTO 02028G38KT 4SM -SN BR SCT015 OVC030 00/M02 A2914 RMK AO2 PK WND 03038/1425 P0000 T00001022 TSNO
PAPB 111416Z AUTO 01023G34KT 2 1/2SM -SN BR FEW009 SCT013 OVC021 00/M02 A2914 RMK AO2 PK WND 02035/1358 VIS 1 1/2V5 P0000 T00001017 TSNO
PAPB 111408Z AUTO 02020G34KT 4SM -SN BR FEW010 BKN020 OVC026 00/M02 A2915 RMK AO2 PK WND 02035/1358 P0000 T00001017 TSNO
PAPB 111353Z AUTO 01017G37KT 2SM -SN BR SCT013 SCT019 OVC024 00/M02 A2915 RMK AO2 PK WND 01040/1318 SLP858 P0000 T00001017 TSNO
PAPB 111312Z AUTO 01021G33KT 3SM -SN BR SCT013 OVC019 00/M02 A2914 RMK AO2 PK WND 02033/1304 P0000 T00001017 TSNO
PAPB 111305Z AUTO 01023G33KT 1 1/2SM -SN BR SCT013 OVC019 M01/M02 A2914 RMK AO2 PK WND 02033/1304 VIS 1V3 P0000 T10061017 TSNO
PAPB 111253Z AUTO 01020G34KT 2 1/2SM -SN BR SCT014 OVC024 M01/M02 A2914 RMK AO2 PK WND 01041/1203 SNB05E08B10 SLP855 P0000 T10061022 TSNO
PAPB 111250Z AUTO 01021G34KT 2 1/2SM -SN BR SCT014 OVC026 00/M02 A2914 RMK AO2 PK WND 01041/1203 VIS 2V4 SNB05E08B10 P0000 TSNO
PAPB 111224Z AUTO 36024G37KT 5SM -SN SCT020 SCT036 OVC045 00/M03 A2914 RMK AO2 PK WND 01041/1203 SNB05E08B10 P0000 T00001028 TSNO
PAPB 111217Z AUTO 01024G39KT 7SM -SN BKN019 BKN036 OVC045 00/M02 A2914 RMK AO2 PK WND 01041/1203 SNB05E08B10 P0000 T00001022 TSNO
PAPB 111209Z AUTO 02026G41KT 9SM SCT019 OVC038 00/M03 A2914 RMK AO2 PK WND 01041/1203 SNB05E08 P0000 T00001028 TSNO
PAPB 111153Z AUTO 02019G39KT 6SM BR BKN016 OVC030 00/M02 A2914 RMK AO2 PK WND 36039/1141 SNE53 SLP856 P0000 60000 T00001022 10006 20000 55001 TSNO
PAPB 111123Z AUTO 35017G38KT 4SM -SN BR FEW013 BKN017 OVC031 00/M02 A2914 RMK AO2 PK WND 36038/1115 P0000 T00001022 TSNO
PAPB 111112Z AUTO 02020G36KT 2SM -SN BR SCT009 BKN015 OVC029 00/M02 A2914 RMK AO2 PK WND 03036/1106 P0000 T00001017 TSNO
PAPB 111105Z AUTO 01022G36KT 1 3/4SM -SN BR FEW009 BKN015 OVC027 00/M02 A2914 RMK AO2 PK WND 03036/1105 P0000 T00001017 TSNO
PAPB 111053Z AUTO 01019G35KT 5SM -SN BR BKN016 OVC032 00/M02 A2913 RMK AO2 PK WND 35037/1028 SLP854 P0000 T00001022 TSNO
PAPB 111042Z AUTO 02019G34KT 4SM -SN BR BKN014 OVC023 00/M02 A2914 RMK AO2 PK WND 35037/1028 P0000 T00001017 TSNO
PAPB 111008Z AUTO 01019G34KT 2 1/2SM -SN BR BKN013 BKN019 OVC026 00/M02 A2914 RMK AO2 PK WND 02034/1006 P0000 T00001017 TSNO
PAPB 110953Z AUTO 02023G43KT 4SM -SN BR SCT015 BKN020 OVC024 00/M02 A2914 RMK AO2 PK WND 35043/0946 SNE0859B31 SLP855 P0000 T00001017 TSNO
PAPB 110853Z AUTO 02022G37KT 4SM -SN BR BKN016 OVC029 00/M02 A2914 RMK AO2 PK WND 01039/0759 SLP857 P0000 60000 T00001017 400170000 56005 TSNO
PAPB 110851Z AUTO 01022G37KT 4SM -SN BR BKN014 OVC019 00/M02 A2915 RMK AO2 PK WND 01039/0759 P0000 TSNO
PAPB 110753Z AUTO 02024G32KT 4SM -SN BR SCT016 BKN021 OVC025 00/M02 A2915 RMK AO2 PK WND 02038/0723 UPB35E38SNB15E35B38 SLP859 P0000 T00001017 TSNO
PAPB 110653Z AUTO 02024G33KT 7SM SCT019 BKN025 OVC043 00/M02 A2916 RMK AO2 PK WND 02037/0634 SNE04 SLP863 P0000 T00001017 TSNO
PAPB 110553Z AUTO 02028G33KT 4SM -SN BR BKN015 OVC024 00/M01 A2917 RMK AO2 PK WND 02038/0509 SNE04B08 SLP866 P0000 60000 T00001011 10011 20000 58013 TSNO
PAPB 110453Z AUTO 02027G35KT 10SM -SN OVC017 01/M02 A2919 RMK AO2 PK WND 02036/0405 SNE04B17E36B53 SLP873 P0000 T00061017 TSNO
PAPB 110405Z AUTO 02026G36KT 8SM FEW013 BKN021 OVC120 01/M01 A2919 RMK AO2 PK WND 02036/0405 SNE04 P0000 T00061011 TSNO
PAPB 110353Z AUTO 02028G34KT 6SM -SN BR BKN013 OVC021 01/M01 A2920 RMK AO2 PK WND 03036/0338 SLP874 P0000 T00061011 TSNO
PAPB 110340Z AUTO 02031G36KT 4SM -SN BR SCT011 BKN015 OVC032 01/M01 A2920 RMK AO2 PK WND 03036/0338 P0000 T00061011 TSNO
PAPB 110309Z AUTO 02023G34KT 6SM -SN BR FEW008 BKN013 OVC025 01/M01 A2921 RMK AO2 PK WND 02035/0259 P0000 T00061006 TSNO
PAPB 110302Z AUTO 02024G34KT 5SM -SN BR SCT010 BKN015 OVC023 01/M01 A2921 RMK AO2 PK WND 02035/0259 P0000 T00061006 TSNO
PAPB 110253Z AUTO 02029G36KT 2 1/2SM -SN BR BKN010 OVC014 01/M01 A2921 RMK AO2 PK WND 02039/0207 SLP879 P0000 60000 T00061006 55011 TSNO
PAPB 110232Z AUTO 03029G36KT 2 1/2SM -SN BR BKN010 OVC014 01/00 A2921 RMK AO2 PK WND 02039/0207 P0000 T00060000 TSNO
PAPB 110203Z AUTO 02031G38KT 3SM -SN BR BKN012 OVC019 01/00 A2920 RMK AO2 PK WND 02038/0159 P0000 T00060000 TSNO
PAPB 110156Z AUTO 02031G38KT 2 1/2SM -SN BR SCT010 OVC015 01/00 A2920 RMK AO2 PK WND 03038/0156 VIS 1 1/4V5 P0000 T00110000 TSNO
PAPB 110153Z AUTO 02032G38KT 3SM -SN BR BKN012 OVC020 01/00 A2920 RMK AO2 PK WND 02038/0120 SLP876 P0000 T00110000 TSNO
PAPB 110138Z AUTO 02031G38KT 4SM -SN BR FEW008 BKN012 OVC020 01/00 A2921 RMK AO2 PK WND 02038/0120 P0000 T00110000 TSNO
PAPB 110135Z AUTO 02033G38KT 3SM -SN BR SCT010 OVC016 01/00 A2921 RMK AO2 PK WND 02038/0120 P0000 T00110000 TSNO
PAPB 110100Z AUTO 03028G36KT 2SM -SN BR FEW008 BKN012 OVC022 01/00 A2922 RMK AO2 PK WND 02035/0057 P0000 T00110000 TSNO
PAPB 110053Z AUTO 03030G36KT 1 3/4SM -SN BR FEW010 BKN014 OVC022 01/00 A2922 RMK AO2 PK WND 02038/0037 VIS 1 1/4V3 SLP883 P0000 T00110000 TSNO
PAPB 110049Z AUTO 03031G37KT 2 1/2SM -SN BR FEW010 BKN014 OVC020 01/00 A2922 RMK AO2 PK WND 02038/0037 P0000 TSNO
PAPB 102353Z AUTO 03026G34KT 4SM -SN BR FEW010 BKN015 OVC023 01/00 A2924 RMK AO2 PK WND 03034/2323 SNB10 SLP890 P0000 60000 T00110000 10017 20011 58018 TSNO
PAPB 102346Z AUTO 03028G33KT 3SM -SN BR FEW010 BKN017 OVC023 01/00 A2924 RMK AO2 PK WND 03034/2323 SNB10 P0000 T00110000 TSNO
PAPB 102339Z AUTO 03024G34KT 2 1/2SM -SN BR SCT010 BKN017 OVC021 01/00 A2925 RMK AO2 PK WND 03034/2323 VIS 1 1/2V5 SNB10 P0000 T00110000 TSNO
PAPB 102332Z AUTO 03027G34KT 4SM -SN BR SCT012 OVC019 01/00 A2925 RMK AO2 PK WND 03034/2323 SNB10 P0000 T00110000 TSNO
PAPB 102309Z AUTO 03026G32KT 8SM BKN013 BKN021 OVC085 01/00 A2926 RMK AO2 PK WND 03032/2309 T00110000 TSNO
PAPB 102253Z AUTO 03024G31KT 10SM SCT013 BKN022 OVC085 01/00 A2927 RMK AO2 PK WND 03031/2237 SNB31E42 SLP899 P0000 T00110000 TSNO
PAPB 102246Z AUTO 03023G31KT 9SM SCT016 OVC021 01/00 A2927 RMK AO2 PK WND 03031/2237 SNB31E42 P0000 T00110000 TSNO